sensor_id;sensor_type;location;lat;lon;timestamp;P1;durP1;ratioP1;P2;durP2;ratioP2
25988;SDS011;13778;48.236;9.894;2023-03-11T00:01:40;1.95;;;1.70;;
25988;SDS011;13778;48.236;9.894;2023-03-11T00:04:30;2.30;;;1.67;;
25988;SDS011;13778;48.236;9.894;2023-03-11T00:07:21;1.63;;;1.52;;
25988;SDS011;13778;48.236;9.894;2023-03-11T00:10:12;1.33;;;1.23;;
25988;SDS011;13778;48.236;9.894;2023-03-11T00:13:03;1.50;;;1.40;;
25988;SDS011;13778;48.236;9.894;2023-03-11T00:15:54;2.10;;;1.23;;
25988;SDS011;13778;48.236;9.894;2023-03-11T00:18:46;2.40;;;1.33;;
25988;SDS011;13778;48.236;9.894;2023-03-11T00:21:39;2.38;;;1.92;;
25988;SDS011;13778;48.236;9.894;2023-03-11T00:24:30;2.40;;;1.98;;
25988;SDS011;13778;48.236;9.894;2023-03-11T00:27:20;2.50;;;1.52;;
25988;SDS011;13778;48.236;9.894;2023-03-11T00:30:11;1.40;;;1.30;;
25988;SDS011;13778;48.236;9.894;2023-03-11T00:33:02;1.67;;;1.58;;
25988;SDS011;13778;48.236;9.894;2023-03-11T00:35:54;2.42;;;1.70;;
25988;SDS011;13778;48.236;9.894;2023-03-11T00:41:34;1.98;;;1.75;;
25988;SDS011;13778;48.236;9.894;2023-03-11T00:44:25;3.95;;;1.40;;
25988;SDS011;13778;48.236;9.894;2023-03-11T00:47:15;1.73;;;1.63;;
25988;SDS011;13778;48.236;9.894;2023-03-11T00:50:06;1.75;;;1.60;;
25988;SDS011;13778;48.236;9.894;2023-03-11T00:55:49;1.60;;;1.50;;
25988;SDS011;13778;48.236;9.894;2023-03-11T01:01:29;0.93;;;0.93;;
25988;SDS011;13778;48.236;9.894;2023-03-11T01:04:20;1.30;;;1.20;;
25988;SDS011;13778;48.236;9.894;2023-03-11T01:07:10;1.50;;;1.30;;
25988;SDS011;13778;48.236;9.894;2023-03-11T01:10:01;1.20;;;1.10;;
25988;SDS011;13778;48.236;9.894;2023-03-11T01:12:53;0.93;;;0.93;;
25988;SDS011;13778;48.236;9.894;2023-03-11T01:15:43;1.30;;;1.08;;
25988;SDS011;13778;48.236;9.894;2023-03-11T01:18:34;2.15;;;1.30;;
25988;SDS011;13778;48.236;9.894;2023-03-11T01:21:24;1.30;;;1.10;;
25988;SDS011;13778;48.236;9.894;2023-03-11T01:24:15;1.30;;;1.00;;
25988;SDS011;13778;48.236;9.894;2023-03-11T01:27:05;3.25;;;1.00;;
25988;SDS011;13778;48.236;9.894;2023-03-11T01:29:57;1.70;;;1.10;;
25988;SDS011;13778;48.236;9.894;2023-03-11T01:35:37;0.90;;;0.90;;
25988;SDS011;13778;48.236;9.894;2023-03-11T01:38:30;2.22;;;1.02;;
25988;SDS011;13778;48.236;9.894;2023-03-11T01:41:20;1.75;;;1.17;;
25988;SDS011;13778;48.236;9.894;2023-03-11T01:44:11;0.90;;;0.90;;
25988;SDS011;13778;48.236;9.894;2023-03-11T01:50:20;1.95;;;1.00;;
25988;SDS011;13778;48.236;9.894;2023-03-11T01:53:11;1.80;;;1.00;;
25988;SDS011;13778;48.236;9.894;2023-03-11T01:56:02;1.77;;;1.00;;
25988;SDS011;13778;48.236;9.894;2023-03-11T01:58:53;2.40;;;1.33;;
25988;SDS011;13778;48.236;9.894;2023-03-11T02:01:47;1.07;;;0.83;;
25988;SDS011;13778;48.236;9.894;2023-03-11T02:04:39;1.55;;;1.10;;
25988;SDS011;13778;48.236;9.894;2023-03-11T02:07:31;4.53;;;1.92;;
25988;SDS011;13778;48.236;9.894;2023-03-11T02:10:21;1.80;;;1.15;;
25988;SDS011;13778;48.236;9.894;2023-03-11T02:13:11;2.63;;;1.00;;
25988;SDS011;13778;48.236;9.894;2023-03-11T02:16:03;0.90;;;0.90;;
25988;SDS011;13778;48.236;9.894;2023-03-11T02:18:53;1.10;;;0.98;;
25988;SDS011;13778;48.236;9.894;2023-03-11T02:21:44;2.50;;;1.23;;
25988;SDS011;13778;48.236;9.894;2023-03-11T02:24:36;1.27;;;1.17;;
25988;SDS011;13778;48.236;9.894;2023-03-11T02:27:29;1.80;;;1.30;;
25988;SDS011;13778;48.236;9.894;2023-03-11T02:30:20;1.13;;;0.93;;
25988;SDS011;13778;48.236;9.894;2023-03-11T02:33:11;2.70;;;1.30;;
25988;SDS011;13778;48.236;9.894;2023-03-11T02:36:03;1.90;;;1.10;;
25988;SDS011;13778;48.236;9.894;2023-03-11T02:38:54;1.35;;;1.25;;
25988;SDS011;13778;48.236;9.894;2023-03-11T02:41:44;1.60;;;1.40;;
25988;SDS011;13778;48.236;9.894;2023-03-11T02:44:36;3.05;;;1.20;;
25988;SDS011;13778;48.236;9.894;2023-03-11T02:47:27;1.25;;;1.15;;
25988;SDS011;13778;48.236;9.894;2023-03-11T02:50:18;2.25;;;1.48;;
25988;SDS011;13778;48.236;9.894;2023-03-11T02:53:08;1.13;;;1.02;;
25988;SDS011;13778;48.236;9.894;2023-03-11T02:55:58;1.50;;;1.25;;
25988;SDS011;13778;48.236;9.894;2023-03-11T02:58:49;1.50;;;1.40;;
25988;SDS011;13778;48.236;9.894;2023-03-11T03:01:41;2.40;;;2.00;;
25988;SDS011;13778;48.236;9.894;2023-03-11T03:04:31;4.82;;;1.13;;
25988;SDS011;13778;48.236;9.894;2023-03-11T03:07:22;2.38;;;1.33;;
25988;SDS011;13778;48.236;9.894;2023-03-11T03:10:13;1.58;;;1.40;;
25988;SDS011;13778;48.236;9.894;2023-03-11T03:13:03;1.20;;;1.10;;
25988;SDS011;13778;48.236;9.894;2023-03-11T03:15:54;2.40;;;2.10;;
25988;SDS011;13778;48.236;9.894;2023-03-11T03:18:46;2.58;;;1.38;;
25988;SDS011;13778;48.236;9.894;2023-03-11T03:21:36;2.10;;;1.48;;
25988;SDS011;13778;48.236;9.894;2023-03-11T03:24:27;1.55;;;1.33;;
25988;SDS011;13778;48.236;9.894;2023-03-11T03:27:18;3.10;;;1.45;;
25988;SDS011;13778;48.236;9.894;2023-03-11T03:30:09;2.65;;;1.10;;
25988;SDS011;13778;48.236;9.894;2023-03-11T03:32:59;3.27;;;1.40;;
25988;SDS011;13778;48.236;9.894;2023-03-11T03:35:51;1.35;;;1.25;;
25988;SDS011;13778;48.236;9.894;2023-03-11T03:38:41;1.35;;;1.23;;
25988;SDS011;13778;48.236;9.894;2023-03-11T03:41:32;1.40;;;1.30;;
25988;SDS011;13778;48.236;9.894;2023-03-11T03:44:22;2.33;;;1.60;;
25988;SDS011;13778;48.236;9.894;2023-03-11T03:47:13;1.20;;;1.20;;
25988;SDS011;13778;48.236;9.894;2023-03-11T03:50:04;1.60;;;1.50;;
25988;SDS011;13778;48.236;9.894;2023-03-11T03:52:56;3.55;;;1.77;;
25988;SDS011;13778;48.236;9.894;2023-03-11T03:55:46;1.85;;;1.73;;
25988;SDS011;13778;48.236;9.894;2023-03-11T03:58:39;2.90;;;1.42;;
25988;SDS011;13778;48.236;9.894;2023-03-11T04:01:29;2.75;;;1.35;;
25988;SDS011;13778;48.236;9.894;2023-03-11T04:04:20;1.98;;;1.50;;
25988;SDS011;13778;48.236;9.894;2023-03-11T04:07:10;2.38;;;1.77;;
25988;SDS011;13778;48.236;9.894;2023-03-11T04:10:03;3.97;;;1.70;;
25988;SDS011;13778;48.236;9.894;2023-03-11T04:12:53;1.60;;;1.50;;
25988;SDS011;13778;48.236;9.894;2023-03-11T04:15:44;1.88;;;1.60;;
25988;SDS011;13778;48.236;9.894;2023-03-11T04:18:35;2.83;;;1.60;;
25988;SDS011;13778;48.236;9.894;2023-03-11T04:21:25;3.97;;;1.80;;
25988;SDS011;13778;48.236;9.894;2023-03-11T04:24:16;1.60;;;1.50;;
25988;SDS011;13778;48.236;9.894;2023-03-11T04:27:07;3.60;;;1.85;;
25988;SDS011;13778;48.236;9.894;2023-03-11T04:32:48;2.75;;;1.52;;
25988;SDS011;13778;48.236;9.894;2023-03-11T04:35:39;2.70;;;1.88;;
25988;SDS011;13778;48.236;9.894;2023-03-11T04:38:29;1.63;;;1.52;;
25988;SDS011;13778;48.236;9.894;2023-03-11T04:41:20;2.47;;;1.63;;
25988;SDS011;13778;48.236;9.894;2023-03-11T04:44:11;3.35;;;1.80;;
25988;SDS011;13778;48.236;9.894;2023-03-11T04:49:52;2.17;;;1.60;;
25988;SDS011;13778;48.236;9.894;2023-03-11T04:52:44;5.07;;;1.60;;
25988;SDS011;13778;48.236;9.894;2023-03-11T04:55:35;3.47;;;1.90;;
25988;SDS011;13778;48.236;9.894;2023-03-11T04:58:25;2.40;;;1.50;;
25988;SDS011;13778;48.236;9.894;2023-03-11T05:01:17;2.63;;;2.08;;
25988;SDS011;13778;48.236;9.894;2023-03-11T05:06:59;2.72;;;1.48;;
25988;SDS011;13778;48.236;9.894;2023-03-11T05:09:49;3.03;;;1.98;;
25988;SDS011;13778;48.236;9.894;2023-03-11T05:12:40;1.85;;;1.40;;
25988;SDS011;13778;48.236;9.894;2023-03-11T05:15:30;3.83;;;1.85;;
25988;SDS011;13778;48.236;9.894;2023-03-11T05:18:22;3.17;;;1.60;;
25988;SDS011;13778;48.236;9.894;2023-03-11T05:21:13;1.95;;;1.65;;
25988;SDS011;13778;48.236;9.894;2023-03-11T05:24:03;2.45;;;1.55;;
25988;SDS011;13778;48.236;9.894;2023-03-11T05:26:54;4.45;;;1.92;;
25988;SDS011;13778;48.236;9.894;2023-03-11T05:29:45;2.75;;;1.50;;
25988;SDS011;13778;48.236;9.894;2023-03-11T05:32:35;2.13;;;1.42;;
25988;SDS011;13778;48.236;9.894;2023-03-11T05:35:27;1.85;;;1.50;;
25988;SDS011;13778;48.236;9.894;2023-03-11T05:38:18;3.25;;;1.48;;
25988;SDS011;13778;48.236;9.894;2023-03-11T05:41:08;4.13;;;1.70;;
25988;SDS011;13778;48.236;9.894;2023-03-11T05:43:59;2.90;;;1.60;;
25988;SDS011;13778;48.236;9.894;2023-03-11T05:46:49;6.65;;;1.83;;
25988;SDS011;13778;48.236;9.894;2023-03-11T05:49:40;1.73;;;1.63;;
25988;SDS011;13778;48.236;9.894;2023-03-11T05:52:31;4.15;;;1.55;;
25988;SDS011;13778;48.236;9.894;2023-03-11T05:55:22;2.30;;;1.70;;
25988;SDS011;13778;48.236;9.894;2023-03-11T05:58:12;9.55;;;1.83;;
25988;SDS011;13778;48.236;9.894;2023-03-11T06:01:06;4.32;;;1.70;;
25988;SDS011;13778;48.236;9.894;2023-03-11T06:03:56;2.92;;;1.27;;
25988;SDS011;13778;48.236;9.894;2023-03-11T06:06:46;2.00;;;1.23;;
25988;SDS011;13778;48.236;9.894;2023-03-11T06:09:38;3.42;;;1.00;;
25988;SDS011;13778;48.236;9.894;2023-03-11T06:15:19;1.40;;;1.30;;
25988;SDS011;13778;48.236;9.894;2023-03-11T06:18:09;1.88;;;1.30;;
25988;SDS011;13778;48.236;9.894;2023-03-11T06:21:00;2.13;;;1.27;;
25988;SDS011;13778;48.236;9.894;2023-03-11T06:23:51;2.15;;;1.52;;
25988;SDS011;13778;48.236;9.894;2023-03-11T06:26:42;6.95;;;1.83;;
25988;SDS011;13778;48.236;9.894;2023-03-11T06:29:32;5.97;;;1.80;;
25988;SDS011;13778;48.236;9.894;2023-03-11T06:32:23;2.15;;;1.27;;
25988;SDS011;13778;48.236;9.894;2023-03-11T06:35:13;3.97;;;1.20;;
25988;SDS011;13778;48.236;9.894;2023-03-11T06:38:04;1.33;;;1.00;;
25988;SDS011;13778;48.236;9.894;2023-03-11T06:40:57;6.43;;;1.55;;
25988;SDS011;13778;48.236;9.894;2023-03-11T06:43:49;3.30;;;1.20;;
25988;SDS011;13778;48.236;9.894;2023-03-11T06:46:40;2.25;;;1.35;;
25988;SDS011;13778;48.236;9.894;2023-03-11T06:49:30;3.90;;;1.48;;
25988;SDS011;13778;48.236;9.894;2023-03-11T06:52:21;4.20;;;1.30;;
25988;SDS011;13778;48.236;9.894;2023-03-11T06:55:11;3.78;;;1.60;;
25988;SDS011;13778;48.236;9.894;2023-03-11T06:58:02;2.83;;;1.00;;
25988;SDS011;13778;48.236;9.894;2023-03-11T07:00:54;5.00;;;1.80;;
25988;SDS011;13778;48.236;9.894;2023-03-11T07:03:44;3.38;;;1.48;;
25988;SDS011;13778;48.236;9.894;2023-03-11T07:06:35;6.22;;;2.03;;
25988;SDS011;13778;48.236;9.894;2023-03-11T07:09:26;4.18;;;2.13;;
25988;SDS011;13778;48.236;9.894;2023-03-11T07:12:17;3.53;;;1.60;;
25988;SDS011;13778;48.236;9.894;2023-03-11T07:15:10;9.52;;;1.48;;
25988;SDS011;13778;48.236;9.894;2023-03-11T07:18:02;6.13;;;2.55;;
25988;SDS011;13778;48.236;9.894;2023-03-11T07:23:43;5.65;;;1.67;;
25988;SDS011;13778;48.236;9.894;2023-03-11T07:26:33;5.80;;;2.10;;
25988;SDS011;13778;48.236;9.894;2023-03-11T07:29:24;2.47;;;1.40;;
25988;SDS011;13778;48.236;9.894;2023-03-11T07:32:14;5.00;;;1.75;;
25988;SDS011;13778;48.236;9.894;2023-03-11T07:35:07;5.57;;;1.90;;
25988;SDS011;13778;48.236;9.894;2023-03-11T07:37:57;4.82;;;1.98;;
25988;SDS011;13778;48.236;9.894;2023-03-11T07:40:56;4.32;;;1.25;;
25988;SDS011;13778;48.236;9.894;2023-03-11T07:43:46;5.90;;;1.30;;
25988;SDS011;13778;48.236;9.894;2023-03-11T07:46:37;4.13;;;1.33;;
25988;SDS011;13778;48.236;9.894;2023-03-11T07:49:27;7.32;;;1.80;;
25988;SDS011;13778;48.236;9.894;2023-03-11T07:52:19;3.42;;;1.50;;
25988;SDS011;13778;48.236;9.894;2023-03-11T07:55:09;11.07;;;5.55;;
25988;SDS011;13778;48.236;9.894;2023-03-11T07:58:00;11.73;;;6.82;;
25988;SDS011;13778;48.236;9.894;2023-03-11T08:00:51;12.63;;;6.35;;
25988;SDS011;13778;48.236;9.894;2023-03-11T08:06:33;8.43;;;3.80;;
25988;SDS011;13778;48.236;9.894;2023-03-11T08:09:25;3.25;;;1.27;;
25988;SDS011;13778;48.236;9.894;2023-03-11T08:12:16;2.38;;;1.20;;
25988;SDS011;13778;48.236;9.894;2023-03-11T08:15:07;3.50;;;1.60;;
25988;SDS011;13778;48.236;9.894;2023-03-11T08:17:58;3.65;;;1.13;;
25988;SDS011;13778;48.236;9.894;2023-03-11T08:20:48;2.95;;;1.45;;
25988;SDS011;13778;48.236;9.894;2023-03-11T08:23:39;5.38;;;1.45;;
25988;SDS011;13778;48.236;9.894;2023-03-11T08:26:31;4.15;;;1.70;;
25988;SDS011;13778;48.236;9.894;2023-03-11T08:29:21;3.63;;;1.27;;
25988;SDS011;13778;48.236;9.894;2023-03-11T08:32:12;4.38;;;1.75;;
25988;SDS011;13778;48.236;9.894;2023-03-11T08:35:02;6.63;;;1.52;;
25988;SDS011;13778;48.236;9.894;2023-03-11T08:37:52;3.08;;;1.50;;
25988;SDS011;13778;48.236;9.894;2023-03-11T08:40:43;5.43;;;1.50;;
25988;SDS011;13778;48.236;9.894;2023-03-11T08:43:35;3.33;;;1.40;;
25988;SDS011;13778;48.236;9.894;2023-03-11T08:46:26;4.15;;;1.10;;
25988;SDS011;13778;48.236;9.894;2023-03-11T08:49:16;3.90;;;1.77;;
25988;SDS011;13778;48.236;9.894;2023-03-11T08:52:07;4.53;;;1.52;;
25988;SDS011;13778;48.236;9.894;2023-03-11T08:54:57;4.72;;;1.50;;
25988;SDS011;13778;48.236;9.894;2023-03-11T08:57:48;2.08;;;1.02;;
25988;SDS011;13778;48.236;9.894;2023-03-11T09:00:40;3.90;;;1.05;;
25988;SDS011;13778;48.236;9.894;2023-03-11T09:06:20;1.67;;;1.17;;
25988;SDS011;13778;48.236;9.894;2023-03-11T09:09:13;6.50;;;1.50;;
25988;SDS011;13778;48.236;9.894;2023-03-11T09:14:55;2.73;;;0.90;;
25988;SDS011;13778;48.236;9.894;2023-03-11T09:17:47;4.55;;;1.55;;
25988;SDS011;13778;48.236;9.894;2023-03-11T09:20:38;3.95;;;1.30;;
25988;SDS011;13778;48.236;9.894;2023-03-11T09:23:28;3.72;;;1.20;;
25988;SDS011;13778;48.236;9.894;2023-03-11T09:26:19;2.75;;;1.30;;
25988;SDS011;13778;48.236;9.894;2023-03-11T09:29:09;3.83;;;1.20;;
25988;SDS011;13778;48.236;9.894;2023-03-11T09:32:00;3.53;;;1.27;;
25988;SDS011;13778;48.236;9.894;2023-03-11T09:34:52;3.72;;;1.30;;
25988;SDS011;13778;48.236;9.894;2023-03-11T09:40:38;4.53;;;1.25;;
25988;SDS011;13778;48.236;9.894;2023-03-11T09:43:34;2.67;;;1.15;;
25988;SDS011;13778;48.236;9.894;2023-03-11T09:46:35;2.65;;;1.65;;
25988;SDS011;13778;48.236;9.894;2023-03-11T09:49:29;7.93;;;2.95;;
25988;SDS011;13778;48.236;9.894;2023-03-11T09:52:25;2.53;;;1.50;;
25988;SDS011;13778;48.236;9.894;2023-03-11T09:55:21;4.25;;;1.33;;
25988;SDS011;13778;48.236;9.894;2023-03-11T09:58:15;3.40;;;1.10;;
25988;SDS011;13778;48.236;9.894;2023-03-11T10:01:10;2.90;;;1.35;;
25988;SDS011;13778;48.236;9.894;2023-03-11T10:04:04;7.28;;;3.75;;
25988;SDS011;13778;48.236;9.894;2023-03-11T10:06:58;5.57;;;1.45;;
25988;SDS011;13778;48.236;9.894;2023-03-11T10:09:52;5.18;;;1.33;;
25988;SDS011;13778;48.236;9.894;2023-03-11T10:12:43;2.63;;;1.10;;
25988;SDS011;13778;48.236;9.894;2023-03-11T10:15:38;8.35;;;1.60;;
25988;SDS011;13778;48.236;9.894;2023-03-11T10:18:39;3.58;;;1.77;;
25988;SDS011;13778;48.236;9.894;2023-03-11T10:21:39;5.05;;;1.40;;
25988;SDS011;13778;48.236;9.894;2023-03-11T10:24:37;6.30;;;1.30;;
25988;SDS011;13778;48.236;9.894;2023-03-11T10:27:34;2.42;;;1.20;;
25988;SDS011;13778;48.236;9.894;2023-03-11T10:30:27;6.32;;;1.60;;
25988;SDS011;13778;48.236;9.894;2023-03-11T10:33:20;4.45;;;1.50;;
25988;SDS011;13778;48.236;9.894;2023-03-11T10:36:12;2.17;;;1.35;;
25988;SDS011;13778;48.236;9.894;2023-03-11T10:39:05;5.22;;;1.80;;
25988;SDS011;13778;48.236;9.894;2023-03-11T10:41:59;5.70;;;1.60;;
25988;SDS011;13778;48.236;9.894;2023-03-11T10:44:52;5.28;;;1.58;;
25988;SDS011;13778;48.236;9.894;2023-03-11T10:50:32;5.07;;;1.55;;
25988;SDS011;13778;48.236;9.894;2023-03-11T10:53:23;4.67;;;1.60;;
25988;SDS011;13778;48.236;9.894;2023-03-11T10:56:22;6.10;;;1.70;;
25988;SDS011;13778;48.236;9.894;2023-03-11T10:59:20;3.38;;;1.40;;
25988;SDS011;13778;48.236;9.894;2023-03-11T11:02:20;3.90;;;2.17;;
25988;SDS011;13778;48.236;9.894;2023-03-11T11:05:22;4.93;;;1.60;;
25988;SDS011;13778;48.236;9.894;2023-03-11T11:08:15;5.30;;;1.65;;
25988;SDS011;13778;48.236;9.894;2023-03-11T11:11:10;2.63;;;1.50;;
25988;SDS011;13778;48.236;9.894;2023-03-11T11:14:09;6.40;;;2.50;;
25988;SDS011;13778;48.236;9.894;2023-03-11T11:16:59;4.00;;;1.75;;
25988;SDS011;13778;48.236;9.894;2023-03-11T11:19:51;5.25;;;1.70;;
25988;SDS011;13778;48.236;9.894;2023-03-11T11:22:46;3.47;;;2.10;;
25988;SDS011;13778;48.236;9.894;2023-03-11T11:25:39;2.08;;;1.40;;
25988;SDS011;13778;48.236;9.894;2023-03-11T11:28:30;4.03;;;1.30;;
25988;SDS011;13778;48.236;9.894;2023-03-11T11:31:22;4.45;;;1.55;;
25988;SDS011;13778;48.236;9.894;2023-03-11T11:37:04;2.97;;;1.73;;
25988;SDS011;13778;48.236;9.894;2023-03-11T11:39:57;2.10;;;1.67;;
25988;SDS011;13778;48.236;9.894;2023-03-11T11:42:49;3.67;;;1.75;;
25988;SDS011;13778;48.236;9.894;2023-03-11T11:45:41;7.57;;;1.85;;
25988;SDS011;13778;48.236;9.894;2023-03-11T11:48:33;1.83;;;1.40;;
25988;SDS011;13778;48.236;9.894;2023-03-11T11:51:27;4.78;;;1.85;;
25988;SDS011;13778;48.236;9.894;2023-03-11T11:54:22;3.63;;;1.70;;
25988;SDS011;13778;48.236;9.894;2023-03-11T11:57:13;3.97;;;1.50;;
25988;SDS011;13778;48.236;9.894;2023-03-11T12:00:08;2.78;;;1.90;;
25988;SDS011;13778;48.236;9.894;2023-03-11T12:03:07;1.40;;;1.30;;
25988;SDS011;13778;48.236;9.894;2023-03-11T12:06:02;2.50;;;1.60;;
25988;SDS011;13778;48.236;9.894;2023-03-11T12:09:01;2.50;;;1.67;;
25988;SDS011;13778;48.236;9.894;2023-03-11T12:11:56;3.55;;;1.58;;
25988;SDS011;13778;48.236;9.894;2023-03-11T12:14:48;5.53;;;1.48;;
25988;SDS011;13778;48.236;9.894;2023-03-11T12:17:40;2.17;;;1.38;;
25988;SDS011;13778;48.236;9.894;2023-03-11T12:20:32;2.15;;;1.50;;
25988;SDS011;13778;48.236;9.894;2023-03-11T12:23:26;3.67;;;1.52;;
25988;SDS011;13778;48.236;9.894;2023-03-11T12:26:22;3.92;;;1.83;;
25988;SDS011;13778;48.236;9.894;2023-03-11T12:29:17;2.58;;;1.60;;
25988;SDS011;13778;48.236;9.894;2023-03-11T12:32:10;2.08;;;1.58;;
25988;SDS011;13778;48.236;9.894;2023-03-11T12:35:09;3.63;;;1.48;;
25988;SDS011;13778;48.236;9.894;2023-03-11T12:38:14;6.28;;;1.73;;
25988;SDS011;13778;48.236;9.894;2023-03-11T12:41:05;3.08;;;1.20;;
25988;SDS011;13778;48.236;9.894;2023-03-11T12:44:00;2.30;;;1.37;;
25988;SDS011;13778;48.236;9.894;2023-03-11T12:53:10;4.65;;;1.80;;
25988;SDS011;13778;48.236;9.894;2023-03-11T12:56:05;2.25;;;1.63;;
25988;SDS011;13778;48.236;9.894;2023-03-11T12:59:07;2.50;;;1.38;;
25988;SDS011;13778;48.236;9.894;2023-03-11T13:02:03;1.45;;;1.20;;
25988;SDS011;13778;48.236;9.894;2023-03-11T13:05:04;2.55;;;1.30;;
25988;SDS011;13778;48.236;9.894;2023-03-11T13:08:01;3.05;;;1.45;;
25988;SDS011;13778;48.236;9.894;2023-03-11T13:10:54;2.28;;;1.20;;
25988;SDS011;13778;48.236;9.894;2023-03-11T13:13:45;2.10;;;1.42;;
25988;SDS011;13778;48.236;9.894;2023-03-11T13:16:37;2.38;;;1.50;;
25988;SDS011;13778;48.236;9.894;2023-03-11T13:19:35;2.58;;;1.50;;
25988;SDS011;13778;48.236;9.894;2023-03-11T13:22:40;6.07;;;1.70;;
25988;SDS011;13778;48.236;9.894;2023-03-11T13:25:32;3.20;;;1.42;;
25988;SDS011;13778;48.236;9.894;2023-03-11T13:28:33;4.88;;;1.55;;
25988;SDS011;13778;48.236;9.894;2023-03-11T13:34:35;3.35;;;1.30;;
25988;SDS011;13778;48.236;9.894;2023-03-11T13:37:32;1.73;;;1.20;;
25988;SDS011;13778;48.236;9.894;2023-03-11T13:40:27;1.30;;;1.10;;
25988;SDS011;13778;48.236;9.894;2023-03-11T13:43:21;2.28;;;1.17;;
25988;SDS011;13778;48.236;9.894;2023-03-11T13:46:13;3.88;;;1.17;;
25988;SDS011;13778;48.236;9.894;2023-03-11T13:49:11;3.00;;;1.67;;
25988;SDS011;13778;48.236;9.894;2023-03-11T13:52:06;2.35;;;1.40;;
25988;SDS011;13778;48.236;9.894;2023-03-11T13:54:58;1.98;;;1.55;;
25988;SDS011;13778;48.236;9.894;2023-03-11T13:57:50;4.95;;;1.42;;
25988;SDS011;13778;48.236;9.894;2023-03-11T14:00:45;3.15;;;1.55;;
25988;SDS011;13778;48.236;9.894;2023-03-11T14:03:39;2.00;;;1.45;;
25988;SDS011;13778;48.236;9.894;2023-03-11T14:06:29;1.88;;;1.38;;
25988;SDS011;13778;48.236;9.894;2023-03-11T14:09:20;4.38;;;1.70;;
25988;SDS011;13778;48.236;9.894;2023-03-11T14:12:11;4.72;;;1.23;;
25988;SDS011;13778;48.236;9.894;2023-03-11T14:15:02;1.60;;;1.30;;
25988;SDS011;13778;48.236;9.894;2023-03-11T14:17:54;2.78;;;1.35;;
25988;SDS011;13778;48.236;9.894;2023-03-11T14:21:08;2.92;;;1.70;;
25988;SDS011;13778;48.236;9.894;2023-03-11T14:24:01;3.55;;;1.52;;
25988;SDS011;13778;48.236;9.894;2023-03-11T14:26:52;2.38;;;1.45;;
25988;SDS011;13778;48.236;9.894;2023-03-11T14:32:34;4.63;;;1.58;;
25988;SDS011;13778;48.236;9.894;2023-03-11T14:35:25;3.90;;;1.27;;
25988;SDS011;13778;48.236;9.894;2023-03-11T14:38:21;3.53;;;1.60;;
25988;SDS011;13778;48.236;9.894;2023-03-11T14:41:12;6.35;;;1.80;;
25988;SDS011;13778;48.236;9.894;2023-03-11T14:44:03;2.85;;;1.02;;
25988;SDS011;13778;48.236;9.894;2023-03-11T14:47:00;3.00;;;1.20;;
25988;SDS011;13778;48.236;9.894;2023-03-11T14:49:52;2.58;;;1.30;;
25988;SDS011;13778;48.236;9.894;2023-03-11T14:52:44;1.10;;;1.00;;
25988;SDS011;13778;48.236;9.894;2023-03-11T14:55:38;2.30;;;1.30;;
25988;SDS011;13778;48.236;9.894;2023-03-11T14:58:30;1.70;;;1.45;;
25988;SDS011;13778;48.236;9.894;2023-03-11T15:01:23;2.03;;;1.35;;
25988;SDS011;13778;48.236;9.894;2023-03-11T15:04:16;2.50;;;1.27;;
25988;SDS011;13778;48.236;9.894;2023-03-11T15:07:11;2.80;;;1.52;;
25988;SDS011;13778;48.236;9.894;2023-03-11T15:10:05;7.32;;;1.63;;
25988;SDS011;13778;48.236;9.894;2023-03-11T15:13:07;5.25;;;1.40;;
25988;SDS011;13778;48.236;9.894;2023-03-11T15:15:58;3.30;;;1.40;;
25988;SDS011;13778;48.236;9.894;2023-03-11T15:18:49;4.57;;;1.33;;
25988;SDS011;13778;48.236;9.894;2023-03-11T15:21:43;2.08;;;1.55;;
25988;SDS011;13778;48.236;9.894;2023-03-11T15:24:34;4.30;;;1.50;;
25988;SDS011;13778;48.236;9.894;2023-03-11T15:27:29;2.65;;;1.40;;
25988;SDS011;13778;48.236;9.894;2023-03-11T15:30:21;2.25;;;1.30;;
25988;SDS011;13778;48.236;9.894;2023-03-11T15:33:19;3.47;;;1.65;;
25988;SDS011;13778;48.236;9.894;2023-03-11T15:39:15;4.78;;;1.92;;
25988;SDS011;13778;48.236;9.894;2023-03-11T15:42:10;4.82;;;1.20;;
25988;SDS011;13778;48.236;9.894;2023-03-11T15:45:07;4.45;;;2.30;;
25988;SDS011;13778;48.236;9.894;2023-03-11T15:48:01;2.13;;;1.85;;
25988;SDS011;13778;48.236;9.894;2023-03-11T15:53:42;1.20;;;1.10;;
25988;SDS011;13778;48.236;9.894;2023-03-11T15:56:32;3.00;;;1.45;;
25988;SDS011;13778;48.236;9.894;2023-03-11T15:59:23;2.25;;;1.08;;
25988;SDS011;13778;48.236;9.894;2023-03-11T16:02:17;4.55;;;1.70;;
25988;SDS011;13778;48.236;9.894;2023-03-11T16:05:14;2.22;;;1.27;;
25988;SDS011;13778;48.236;9.894;2023-03-11T16:08:05;2.20;;;1.40;;
25988;SDS011;13778;48.236;9.894;2023-03-11T16:10:56;4.20;;;1.73;;
25988;SDS011;13778;48.236;9.894;2023-03-11T16:13:46;4.07;;;1.65;;
25988;SDS011;13778;48.236;9.894;2023-03-11T16:16:37;3.63;;;2.55;;
25988;SDS011;13778;48.236;9.894;2023-03-11T16:19:28;5.38;;;1.98;;
25988;SDS011;13778;48.236;9.894;2023-03-11T16:22:20;2.85;;;2.03;;
25988;SDS011;13778;48.236;9.894;2023-03-11T16:25:13;2.58;;;2.20;;
25988;SDS011;13778;48.236;9.894;2023-03-11T16:28:09;3.78;;;1.50;;
25988;SDS011;13778;48.236;9.894;2023-03-11T16:31:00;6.82;;;1.50;;
25988;SDS011;13778;48.236;9.894;2023-03-11T16:33:51;7.80;;;2.60;;
25988;SDS011;13778;48.236;9.894;2023-03-11T16:36:41;2.47;;;1.30;;
25988;SDS011;13778;48.236;9.894;2023-03-11T16:39:33;6.78;;;3.58;;
25988;SDS011;13778;48.236;9.894;2023-03-11T16:42:23;5.57;;;2.78;;
25988;SDS011;13778;48.236;9.894;2023-03-11T16:45:14;13.13;;;3.55;;
25988;SDS011;13778;48.236;9.894;2023-03-11T16:48:05;6.43;;;2.63;;
25988;SDS011;13778;48.236;9.894;2023-03-11T16:50:55;10.15;;;3.78;;
25988;SDS011;13778;48.236;9.894;2023-03-11T16:53:46;10.48;;;3.95;;
25988;SDS011;13778;48.236;9.894;2023-03-11T16:56:38;5.25;;;2.67;;
25988;SDS011;13778;48.236;9.894;2023-03-11T16:59:29;6.07;;;4.03;;
25988;SDS011;13778;48.236;9.894;2023-03-11T17:02:20;3.70;;;2.45;;
25988;SDS011;13778;48.236;9.894;2023-03-11T17:05:10;3.70;;;1.83;;
25988;SDS011;13778;48.236;9.894;2023-03-11T17:08:01;6.63;;;3.22;;
25988;SDS011;13778;48.236;9.894;2023-03-11T17:10:52;5.03;;;2.47;;
25988;SDS011;13778;48.236;9.894;2023-03-11T17:13:44;4.80;;;2.60;;
25988;SDS011;13778;48.236;9.894;2023-03-11T17:16:34;5.38;;;2.08;;
25988;SDS011;13778;48.236;9.894;2023-03-11T17:19:25;7.15;;;2.47;;
25988;SDS011;13778;48.236;9.894;2023-03-11T17:22:15;8.63;;;3.20;;
25988;SDS011;13778;48.236;9.894;2023-03-11T17:25:06;3.83;;;2.30;;
25988;SDS011;13778;48.236;9.894;2023-03-11T17:27:57;4.68;;;3.38;;
25988;SDS011;13778;48.236;9.894;2023-03-11T17:30:49;6.85;;;3.30;;
25988;SDS011;13778;48.236;9.894;2023-03-11T17:36:29;5.07;;;2.45;;
25988;SDS011;13778;48.236;9.894;2023-03-11T17:39:20;4.45;;;2.28;;
25988;SDS011;13778;48.236;9.894;2023-03-11T17:42:10;5.45;;;2.90;;
25988;SDS011;13778;48.236;9.894;2023-03-11T17:45:00;7.18;;;2.92;;
25988;SDS011;13778;48.236;9.894;2023-03-11T17:47:52;9.27;;;2.30;;
25988;SDS011;13778;48.236;9.894;2023-03-11T17:50:42;3.60;;;2.15;;
25988;SDS011;13778;48.236;9.894;2023-03-11T17:53:32;5.80;;;2.75;;
25988;SDS011;13778;48.236;9.894;2023-03-11T17:56:24;8.38;;;3.10;;
25988;SDS011;13778;48.236;9.894;2023-03-11T17:59:14;7.93;;;3.30;;
25988;SDS011;13778;48.236;9.894;2023-03-11T18:02:05;4.68;;;3.22;;
25988;SDS011;13778;48.236;9.894;2023-03-11T18:04:57;3.28;;;2.58;;
25988;SDS011;13778;48.236;9.894;2023-03-11T18:07:47;4.47;;;2.63;;
25988;SDS011;13778;48.236;9.894;2023-03-11T18:10:38;4.43;;;2.92;;
25988;SDS011;13778;48.236;9.894;2023-03-11T18:13:29;7.72;;;5.25;;
25988;SDS011;13778;48.236;9.894;2023-03-11T18:16:20;22.80;;;10.40;;
25988;SDS011;13778;48.236;9.894;2023-03-11T18:19:11;12.02;;;6.05;;
25988;SDS011;13778;48.236;9.894;2023-03-11T18:22:03;4.65;;;2.97;;
25988;SDS011;13778;48.236;9.894;2023-03-11T18:24:53;7.57;;;2.88;;